Macdill AFB, Florida
Current Conditions -  °F | °C
As of 3:58 PM on Saturday 25 Oct 2014 (Local Time) from KMCF Reporting Station
Clear Clear  
Wind Chill: 78°   Ceiling: Unl
Heat Index: 79°   Visibility: 10mi
Dew Point: 56°   Wind: 10mph
Humidity: 46%   Direction: 330°NNW
Pressure: 29.95"   Gusts: NA
Location:  27.8467°N, 82.5182°W
Report Text: KMCF 251958Z AUTO 33009KT 10SM CLR 26/13 A2995 RMK AO2 SLP145 T02570133
Loading
Personal Weather Stations






























Interactive Weather Map
Tropical Storm Tracking
New forecast layout! Learn more

10-Day Weather Forecast

Advertisements
Track Severe Weather on mobile